createdAt,value
2022-07-29T00:01:51.106Z,98889.34
2022-07-29T00:04:18.225Z,98887.38
2022-07-29T00:06:44.926Z,98891.56
2022-07-29T00:09:11.367Z,98890.94
2022-07-29T00:11:37.969Z,98891.75
2022-07-29T00:14:04.347Z,98895.47
2022-07-29T00:16:30.971Z,98891.25
2022-07-29T00:19:01.816Z,98888.38
2022-07-29T00:21:28.681Z,98889.22
2022-07-29T00:23:55.112Z,98893.91
2022-07-29T00:26:21.880Z,98890.28
2022-07-29T00:28:48.280Z,98882.28
2022-07-29T00:31:14.775Z,98881.09
2022-07-29T00:33:41.760Z,98884.81
2022-07-29T00:36:08.724Z,98882.28
2022-07-29T00:38:35.362Z,98881.47
2022-07-29T00:41:01.976Z,98874.75
2022-07-29T00:43:28.409Z,98876.81
2022-07-29T00:45:54.840Z,98871.78
2022-07-29T00:48:21.290Z,98869.84
2022-07-29T00:50:47.717Z,98877.13
2022-07-29T00:53:14.116Z,98878.09
2022-07-29T00:55:40.732Z,98875.69
2022-07-29T00:58:07.150Z,98870.75
2022-07-29T01:00:34.044Z,98874.28
2022-07-29T01:03:00.648Z,98870.13
2022-07-29T01:05:50.788Z,98867.59
2022-07-29T01:08:15.074Z,98864.25
2022-07-29T01:10:41.594Z,98866.41
2022-07-29T01:13:08.538Z,98867.31
2022-07-29T01:15:35.110Z,98863.31
2022-07-29T01:18:03.591Z,98861.81
2022-07-29T01:20:32.765Z,98863.13
2022-07-29T01:22:59.782Z,98859.25
2022-07-29T01:25:26.265Z,98847.63
2022-07-29T01:27:54.757Z,98848.75
2022-07-29T01:30:22.032Z,98860.19
2022-07-29T01:32:50.465Z,98856.66
2022-07-29T01:35:16.885Z,98861.81
2022-07-29T01:37:43.491Z,98856.25
2022-07-29T01:40:10.167Z,98859.25
2022-07-29T01:42:36.582Z,98858.34
2022-07-29T01:45:03.143Z,98864.56
2022-07-29T01:47:29.723Z,98861.88
2022-07-29T01:49:56.146Z,98865.66
2022-07-29T01:52:22.720Z,98862.44
2022-07-29T01:54:49.110Z,98867.44
2022-07-29T01:57:15.567Z,98864.94
2022-07-29T01:59:42.454Z,98865.78
2022-07-29T02:02:08.952Z,98862.91
2022-07-29T02:04:35.452Z,98866.78
2022-07-29T02:07:02.431Z,98866.63
2022-07-29T02:09:29.208Z,98866.84
2022-07-29T02:11:55.629Z,98871.97
2022-07-29T02:14:22.613Z,98873.44
2022-07-29T02:16:49.113Z,98876.03
2022-07-29T02:19:15.607Z,98871.94
2022-07-29T02:21:42.039Z,98872.06
2022-07-29T02:24:08.455Z,98870.16
2022-07-29T02:26:34.927Z,98876.88
2022-07-29T02:29:01.435Z,98881.28
2022-07-29T02:31:28.060Z,98862.97
2022-07-29T02:33:54.673Z,98871.56
2022-07-29T02:36:21.348Z,98864.50
2022-07-29T02:38:47.735Z,98868.88
2022-07-29T02:41:14.126Z,98867.88
2022-07-29T02:43:40.829Z,98871.22
2022-07-29T02:46:12.782Z,98860.47
2022-07-29T02:48:53.748Z,98859.31
2022-07-29T02:51:43.449Z,98864.22
2022-07-29T02:54:08.821Z,98859.31
2022-07-29T02:56:35.227Z,98850.41
2022-07-29T02:59:01.622Z,98850.91
2022-07-29T03:01:28.728Z,98858.44
2022-07-29T03:03:55.187Z,98851.88
2022-07-29T03:06:31.379Z,98854.56
2022-07-29T03:09:10.496Z,98856.25
2022-07-29T03:11:50.063Z,98859.28
2022-07-29T03:14:17.629Z,98862.47
2022-07-29T03:16:44.439Z,98859.94
2022-07-29T03:19:10.851Z,98865.34
2022-07-29T03:21:37.607Z,98861.66
2022-07-29T03:24:09.791Z,98862.34
2022-07-29T03:26:36.880Z,98854.66
2022-07-29T03:29:09.336Z,98851.13
2022-07-29T03:31:39.940Z,98856.69
2022-07-29T03:34:10.311Z,98849.97
2022-07-29T03:36:36.744Z,98846.56
2022-07-29T03:39:03.178Z,98844.91
2022-07-29T03:41:29.751Z,98850.13
2022-07-29T03:43:56.203Z,98854.25
2022-07-29T03:46:22.655Z,98847.69
2022-07-29T03:48:49.182Z,98850.84
2022-07-29T03:51:15.668Z,98849.72
2022-07-29T03:53:42.123Z,98854.59
2022-07-29T03:56:08.763Z,98854.25
2022-07-29T03:58:35.409Z,98850.94
2022-07-29T04:01:01.838Z,98854.75
2022-07-29T04:03:28.942Z,98857.34
2022-07-29T04:05:55.396Z,98863.53
2022-07-29T04:08:21.787Z,98861.31
2022-07-29T04:10:48.797Z,98868.41
2022-07-29T04:13:15.187Z,98860.53
2022-07-29T04:15:41.727Z,98870.09
2022-07-29T04:18:08.194Z,98864.00
2022-07-29T04:20:34.659Z,98864.94
2022-07-29T04:23:01.416Z,98867.94
2022-07-29T04:25:27.973Z,98862.91
2022-07-29T04:27:54.380Z,98860.63
2022-07-29T04:30:20.783Z,98859.72
2022-07-29T04:32:47.547Z,98868.25
2022-07-29T04:35:13.936Z,98864.66
2022-07-29T04:37:40.349Z,98865.31
2022-07-29T04:40:11.631Z,98876.81
2022-07-29T04:42:46.245Z,98878.75
2022-07-29T04:45:13.866Z,98871.72
2022-07-29T04:47:40.655Z,98879.63
2022-07-29T04:50:07.329Z,98877.63
2022-07-29T04:52:34.038Z,98878.94
2022-07-29T04:55:00.693Z,98881.44
2022-07-29T04:57:27.151Z,98883.16
2022-07-29T04:59:53.636Z,98888.72
2022-07-29T05:02:20.078Z,98891.59
2022-07-29T05:04:46.512Z,98896.56
2022-07-29T05:07:13.133Z,98876.97
2022-07-29T05:09:39.557Z,98880.31
2022-07-29T05:12:06.015Z,98883.69
2022-07-29T05:14:32.651Z,98887.53
2022-07-29T05:16:59.037Z,98887.97
2022-07-29T05:19:25.445Z,98882.78
2022-07-29T05:21:51.912Z,98885.34
2022-07-29T05:24:18.697Z,98895.03
2022-07-29T05:26:45.342Z,98892.09
2022-07-29T05:29:44.964Z,98894.06
2022-07-29T05:31:58.126Z,98890.00
2022-07-29T05:34:24.618Z,98886.13
2022-07-29T05:36:51.023Z,98886.84
2022-07-29T05:39:17.399Z,98891.06
2022-07-29T05:41:48.841Z,98895.03
2022-07-29T05:44:18.497Z,98899.72
2022-07-29T05:46:45.108Z,98896.00
2022-07-29T05:49:12.292Z,98898.16
2022-07-29T05:51:53.792Z,98895.81
2022-07-29T05:54:20.413Z,98885.59
2022-07-29T05:56:46.818Z,98905.88
2022-07-29T05:59:17.952Z,98905.59
2022-07-29T06:01:44.812Z,98905.56
2022-07-29T06:04:11.396Z,98905.97
2022-07-29T06:06:37.893Z,98909.16
2022-07-29T06:09:12.197Z,98909.34
2022-07-29T06:11:39.138Z,98911.63
2022-07-29T06:14:05.639Z,98913.28
2022-07-29T06:16:32.114Z,98918.22
2022-07-29T06:18:58.533Z,98916.00
2022-07-29T06:21:25.205Z,98919.81
2022-07-29T06:23:51.592Z,98923.56
2022-07-29T06:26:18.000Z,98911.41
2022-07-29T06:28:44.485Z,98916.13
2022-07-29T06:31:10.980Z,98919.53
2022-07-29T06:33:37.471Z,98914.44
2022-07-29T06:36:03.975Z,98919.16
2022-07-29T06:38:34.316Z,98909.75
2022-07-29T06:41:06.721Z,98918.31
2022-07-29T06:43:33.121Z,98913.75
2022-07-29T06:45:59.557Z,98910.22
2022-07-29T06:48:26.200Z,98914.50
2022-07-29T06:50:52.608Z,98920.16
2022-07-29T06:53:19.077Z,98923.63
2022-07-29T06:55:48.673Z,98928.63
2022-07-29T06:58:15.067Z,98922.72
2022-07-29T07:00:41.541Z,98925.91
2022-07-29T07:03:08.158Z,98923.84
2022-07-29T07:05:34.627Z,98931.09
2022-07-29T07:08:01.080Z,98937.00
2022-07-29T07:10:27.483Z,98928.91
2022-07-29T07:12:53.873Z,98932.63
2022-07-29T07:15:20.302Z,98934.06
2022-07-29T07:17:46.827Z,98935.19
2022-07-29T07:20:13.340Z,98937.66
2022-07-29T07:22:39.773Z,98935.88
2022-07-29T07:25:06.201Z,98939.59
2022-07-29T07:27:32.613Z,98937.47
2022-07-29T07:29:59.107Z,98929.84
2022-07-29T07:32:26.129Z,98934.50
2022-07-29T07:34:52.616Z,98937.38
2022-07-29T07:37:19.050Z,98939.97
2022-07-29T07:39:45.576Z,98944.16
2022-07-29T07:42:11.978Z,98945.97
2022-07-29T07:44:51.501Z,98942.56
2022-07-29T07:47:24.803Z,98943.19
2022-07-29T07:49:54.470Z,98948.41
2022-07-29T07:52:20.909Z,98951.03
2022-07-29T07:54:47.352Z,98944.59
2022-07-29T07:57:13.747Z,98944.50
2022-07-29T07:59:40.193Z,98939.75
2022-07-29T08:02:06.839Z,98949.00
2022-07-29T08:04:33.321Z,98951.84
2022-07-29T08:06:59.732Z,98954.56
2022-07-29T08:09:29.895Z,98953.59
2022-07-29T08:11:56.826Z,98962.41
2022-07-29T08:14:23.319Z,98960.34
2022-07-29T08:16:50.114Z,98962.66
2022-07-29T08:19:16.551Z,98959.84
2022-07-29T08:21:42.982Z,98968.97
2022-07-29T08:24:09.447Z,98960.50
2022-07-29T08:26:35.802Z,98962.66
2022-07-29T08:29:02.171Z,98950.03
2022-07-29T08:31:28.961Z,98950.84
2022-07-29T08:33:55.418Z,98959.66
2022-07-29T08:36:21.914Z,98957.72
2022-07-29T08:38:48.398Z,98955.69
2022-07-29T08:41:14.778Z,98955.22
2022-07-29T08:43:41.171Z,98958.81
2022-07-29T08:46:08.032Z,98963.22
2022-07-29T08:48:34.459Z,98949.19
2022-07-29T08:51:00.806Z,98954.00
2022-07-29T08:53:28.990Z,98950.03
2022-07-29T08:55:55.398Z,98955.44
2022-07-29T08:58:23.368Z,98955.06
2022-07-29T09:00:51.294Z,98961.47
2022-07-29T09:03:17.801Z,98951.84
2022-07-29T09:05:47.961Z,98960.88
2022-07-29T09:08:14.857Z,98964.44
2022-07-29T09:10:41.374Z,98953.59
2022-07-29T09:13:07.731Z,98945.94
2022-07-29T09:15:34.151Z,98946.22
2022-07-29T09:18:00.542Z,98942.13
2022-07-29T09:20:26.956Z,98943.47
2022-07-29T09:22:53.422Z,98943.84
2022-07-29T09:25:19.807Z,98943.84
2022-07-29T09:27:46.221Z,98942.25
2022-07-29T09:30:12.791Z,98944.09
2022-07-29T09:32:39.487Z,98947.09
2022-07-29T09:35:09.875Z,98940.41
2022-07-29T09:37:36.468Z,98947.47
2022-07-29T09:40:02.870Z,98947.69
2022-07-29T09:42:29.265Z,98949.59
2022-07-29T09:44:55.884Z,98947.97
2022-07-29T09:47:22.297Z,98946.19
2022-07-29T09:49:48.675Z,98942.78
2022-07-29T09:52:17.281Z,98945.47
2022-07-29T09:54:43.710Z,98940.88
2022-07-29T09:57:10.099Z,98938.81
2022-07-29T09:59:37.384Z,98942.41
2022-07-29T10:02:21.707Z,98935.69
2022-07-29T10:04:48.637Z,98931.34
2022-07-29T10:07:15.056Z,98930.13
2022-07-29T10:09:41.441Z,98931.47
2022-07-29T10:12:07.857Z,98930.69
2022-07-29T10:14:34.314Z,98939.28
2022-07-29T10:17:00.887Z,98931.03
2022-07-29T10:19:27.376Z,98926.94
2022-07-29T10:21:57.905Z,98927.81
2022-07-29T10:24:24.544Z,98921.97
2022-07-29T10:26:50.934Z,98926.88
2022-07-29T10:29:17.347Z,98919.97
2022-07-29T10:31:43.755Z,98924.16
2022-07-29T10:34:10.245Z,98927.06
2022-07-29T10:36:38.775Z,98923.56
2022-07-29T10:39:05.416Z,98928.47
2022-07-29T10:41:43.629Z,98922.03
2022-07-29T10:44:22.899Z,98909.84
2022-07-29T10:46:50.068Z,98910.00
2022-07-29T10:49:16.587Z,98909.97
2022-07-29T10:51:44.617Z,98896.03
2022-07-29T10:54:11.492Z,98913.28
2022-07-29T10:56:37.912Z,98909.25
2022-07-29T10:59:04.609Z,98918.09
2022-07-29T11:01:37.431Z,98902.50
2022-07-29T11:04:05.482Z,98902.13
2022-07-29T11:06:34.564Z,98906.28
2022-07-29T11:09:01.125Z,98902.06
2022-07-29T11:11:29.731Z,98897.38
2022-07-29T11:13:57.093Z,98901.34
2022-07-29T11:16:25.248Z,98903.44
2022-07-29T11:18:51.951Z,98901.63
2022-07-29T11:21:23.256Z,98890.41
2022-07-29T11:23:50.112Z,98893.03
2022-07-29T11:29:02.962Z,98889.63
2022-07-29T11:31:29.353Z,98883.19
2022-07-29T11:33:56.811Z,98874.91
2022-07-29T11:36:28.279Z,98887.13
2022-07-29T11:38:54.974Z,98879.19
2022-07-29T11:41:21.467Z,98883.50
2022-07-29T11:43:48.024Z,98880.19
2022-07-29T11:46:17.167Z,98884.56
2022-07-29T11:51:38.233Z,98871.31
2022-07-29T11:54:15.751Z,98867.53
2022-07-29T11:56:42.492Z,98863.19
2022-07-29T11:59:09.064Z,98860.63
2022-07-29T12:01:38.782Z,98858.97
2022-07-29T12:04:06.806Z,98856.28
2022-07-29T12:06:33.365Z,98848.31
2022-07-29T12:07:02.873Z,98889.28
2022-07-29T12:09:00.266Z,98849.53
2022-07-29T12:11:26.623Z,98838.88
2022-07-29T12:13:53.179Z,98838.53
2022-07-29T12:16:25.766Z,98846.06
2022-07-29T12:18:55.846Z,98848.00
2022-07-29T12:21:25.616Z,98844.91
2022-07-29T12:23:52.524Z,98840.97
2022-07-29T12:26:21.959Z,98840.06
2022-07-29T12:28:52.190Z,98837.69
2022-07-29T12:31:43.806Z,98842.31
2022-07-29T12:34:07.870Z,98847.06
2022-07-29T12:36:34.634Z,98845.75
2022-07-29T12:39:01.363Z,98838.00
2022-07-29T12:41:27.822Z,98844.22
2022-07-29T12:43:54.248Z,98839.97
2022-07-29T12:46:20.864Z,98829.97
2022-07-29T12:48:47.569Z,98831.19
2022-07-29T12:51:14.096Z,98829.22
2022-07-29T12:53:40.810Z,98834.25
2022-07-29T12:56:26.705Z,98820.19
2022-07-29T12:58:54.396Z,98822.81
2022-07-29T13:01:20.932Z,98818.03
2022-07-29T13:03:57.058Z,98826.56
2022-07-29T13:06:24.603Z,98822.66
2022-07-29T13:08:51.168Z,98815.28
2022-07-29T13:11:17.802Z,98834.44
2022-07-29T13:13:44.257Z,98831.25
2022-07-29T13:16:10.749Z,98830.44
2022-07-29T13:18:37.176Z,98839.75
2022-07-29T13:21:03.954Z,98834.53
2022-07-29T13:23:30.543Z,98838.44
2022-07-29T13:25:59.591Z,98851.72
2022-07-29T13:28:28.533Z,98839.31
2022-07-29T13:30:55.081Z,98838.75
2022-07-29T13:33:21.591Z,98837.66
2022-07-29T13:35:48.352Z,98846.03
2022-07-29T13:38:14.761Z,98854.41
2022-07-29T13:40:41.329Z,98851.19
2022-07-29T13:43:07.927Z,98851.72
2022-07-29T13:45:34.607Z,98852.16
2022-07-29T13:48:01.043Z,98870.59
2022-07-29T13:50:28.047Z,98857.75
2022-07-29T13:52:54.411Z,98853.34
2022-07-29T13:55:20.866Z,98857.41
2022-07-29T13:57:47.501Z,98849.03
2022-07-29T14:00:14.099Z,98860.19
2022-07-29T14:02:40.692Z,98862.50
2022-07-29T14:05:08.681Z,98866.25
2022-07-29T14:07:35.550Z,98874.13
2022-07-29T14:10:01.966Z,98888.31
2022-07-29T14:12:28.769Z,98905.66
2022-07-29T14:14:55.333Z,98903.28
2022-07-29T14:17:21.945Z,98909.03
2022-07-29T14:19:48.721Z,98904.47
2022-07-29T14:22:15.257Z,98902.19
2022-07-29T14:24:42.858Z,98908.59
2022-07-29T14:27:09.553Z,98898.91
2022-07-29T14:29:37.172Z,98903.69
2022-07-29T14:32:04.872Z,98902.91
2022-07-29T14:34:31.341Z,98905.63
2022-07-29T14:36:57.901Z,98900.41
2022-07-29T14:39:24.745Z,98906.84
2022-07-29T14:41:58.495Z,98898.78
2022-07-29T14:44:25.269Z,98897.38
2022-07-29T14:46:52.085Z,98905.56
2022-07-29T14:49:18.568Z,98890.00
2022-07-29T14:51:44.973Z,98876.88
2022-07-29T14:54:11.568Z,98861.75
2022-07-29T14:56:46.561Z,98870.38
2022-07-29T14:59:14.004Z,98870.47
2022-07-29T15:01:40.735Z,98856.00
2022-07-29T15:04:07.387Z,98860.84
2022-07-29T15:06:33.758Z,98849.69
2022-07-29T15:09:00.356Z,98841.94
2022-07-29T15:11:26.803Z,98826.25
2022-07-29T15:13:53.218Z,98817.88
2022-07-29T15:16:19.839Z,98822.91
2022-07-29T15:18:46.358Z,98816.84
2022-07-29T15:21:12.745Z,98811.19
2022-07-29T15:23:39.195Z,98814.72
2022-07-29T15:26:05.629Z,98814.25
2022-07-29T15:28:32.270Z,98808.09
2022-07-29T15:30:58.933Z,98811.00
2022-07-29T15:33:25.373Z,98809.69
2022-07-29T15:35:51.879Z,98808.28
2022-07-29T15:38:18.742Z,98800.38
2022-07-29T15:40:45.168Z,98795.84
2022-07-29T15:43:11.832Z,98787.25
2022-07-29T15:45:40.475Z,98786.41
2022-07-29T15:48:07.507Z,98778.59
2022-07-29T15:50:33.948Z,98779.16
2022-07-29T15:53:00.653Z,98776.94
2022-07-29T15:55:27.102Z,98763.19
2022-07-29T15:57:57.186Z,98759.63
2022-07-29T16:00:26.589Z,98756.44
2022-07-29T16:02:53.001Z,98758.19
2022-07-29T16:05:19.640Z,98755.91
2022-07-29T16:07:46.296Z,98752.63
2022-07-29T16:10:12.677Z,98754.63
2022-07-29T16:12:39.067Z,98758.38
2022-07-29T16:15:09.665Z,98758.31
2022-07-29T16:17:36.494Z,98750.94
2022-07-29T16:20:02.908Z,98761.38
2022-07-29T16:22:29.400Z,98759.78
2022-07-29T16:24:55.795Z,98751.44
2022-07-29T16:27:22.272Z,98749.19
2022-07-29T16:29:48.989Z,98749.53
2022-07-29T16:32:15.418Z,98753.44
2022-07-29T16:34:50.342Z,98748.03
2022-07-29T16:37:16.819Z,98743.16
2022-07-29T16:39:43.222Z,98751.72
2022-07-29T16:42:17.147Z,98753.66
2022-07-29T16:44:52.102Z,98755.34
2022-07-29T16:47:18.873Z,98747.72
2022-07-29T16:49:46.690Z,98746.59
2022-07-29T16:52:13.567Z,98739.81
2022-07-29T16:54:40.244Z,98734.59
2022-07-29T16:57:06.783Z,98734.31
2022-07-29T16:59:33.201Z,98734.16
2022-07-29T17:02:10.204Z,98737.97
2022-07-29T17:04:36.672Z,98742.75
2022-07-29T17:07:03.087Z,98741.91
2022-07-29T17:09:29.994Z,98747.53
2022-07-29T17:11:56.493Z,98746.91
2022-07-29T17:14:23.353Z,98752.31
2022-07-29T17:17:02.901Z,98746.06
2022-07-29T17:19:29.882Z,98748.38
2022-07-29T17:22:04.650Z,98747.13
2022-07-29T17:24:35.553Z,98750.66
2022-07-29T17:27:02.176Z,98744.38
2022-07-29T17:29:28.782Z,98747.88
2022-07-29T17:31:55.188Z,98747.66
2022-07-29T17:34:21.678Z,98742.63
2022-07-29T17:36:48.660Z,98753.88
2022-07-29T17:39:15.488Z,98752.22
2022-07-29T17:41:42.188Z,98755.31
2022-07-29T17:44:08.688Z,98757.81
2022-07-29T17:46:35.156Z,98760.06
2022-07-29T17:49:01.869Z,98752.16
2022-07-29T17:51:28.269Z,98758.34
2022-07-29T17:53:54.682Z,98755.66
2022-07-29T17:56:25.735Z,98756.69
2022-07-29T17:58:52.229Z,98751.06
2022-07-29T18:01:18.831Z,98750.00
2022-07-29T18:03:45.854Z,98750.16
2022-07-29T18:06:12.282Z,98747.84
2022-07-29T18:08:38.726Z,98741.59
2022-07-29T18:11:05.599Z,98749.63
2022-07-29T18:13:32.007Z,98738.16
2022-07-29T18:16:00.534Z,98746.47
2022-07-29T18:18:27.643Z,98755.41
2022-07-29T18:20:54.106Z,98769.31
2022-07-29T18:23:20.562Z,98766.34
2022-07-29T18:25:47.007Z,98762.78
2022-07-29T18:28:13.563Z,98758.84
2022-07-29T18:30:39.953Z,98779.03
2022-07-29T18:33:22.681Z,98784.88
2022-07-29T18:35:49.443Z,98782.41
2022-07-29T18:38:16.038Z,98789.06
2022-07-29T18:40:42.450Z,98781.97
2022-07-29T18:43:08.862Z,98783.66
2022-07-29T18:45:35.590Z,98783.66
2022-07-29T18:48:06.050Z,98772.59
2022-07-29T18:50:32.501Z,98774.16
2022-07-29T18:52:59.122Z,98773.53
2022-07-29T18:55:25.536Z,98778.94
2022-07-29T18:57:54.409Z,98773.69
2022-07-29T19:00:22.949Z,98770.69
2022-07-29T19:02:50.209Z,98770.44
2022-07-29T19:05:16.754Z,98776.38
2022-07-29T19:07:43.477Z,98777.03
2022-07-29T19:10:09.948Z,98775.03
2022-07-29T19:12:36.410Z,98776.81
2022-07-29T19:15:02.969Z,98768.72
2022-07-29T19:17:29.390Z,98771.94
2022-07-29T19:19:55.797Z,98781.66
2022-07-29T19:22:22.318Z,98774.72
2022-07-29T19:24:48.724Z,98781.44
2022-07-29T19:27:15.114Z,98778.09
2022-07-29T19:29:42.264Z,98788.66
2022-07-29T19:32:08.722Z,98781.44
2022-07-29T19:34:35.436Z,98783.03
2022-07-29T19:37:02.461Z,98785.03
2022-07-29T19:39:35.285Z,98783.78
2022-07-29T19:42:03.370Z,98787.91
2022-07-29T19:44:30.197Z,98793.28
2022-07-29T19:46:56.930Z,98791.78
2022-07-29T19:49:23.846Z,98796.88
2022-07-29T19:51:50.314Z,98798.19
2022-07-29T19:54:19.878Z,98793.56
2022-07-29T19:56:47.210Z,98806.75
2022-07-29T19:59:13.638Z,98799.44
2022-07-29T20:01:40.580Z,98797.63
2022-07-29T20:04:07.113Z,98794.72
2022-07-29T20:06:33.575Z,98807.38
2022-07-29T20:09:00.155Z,98809.53
2022-07-29T20:11:26.626Z,98819.44
2022-07-29T20:13:53.029Z,98809.72
2022-07-29T20:16:19.610Z,98815.88
2022-07-29T20:18:46.308Z,98817.50
2022-07-29T20:21:13.337Z,98822.66
2022-07-29T20:23:39.761Z,98825.59
2022-07-29T20:26:09.430Z,98828.09
2022-07-29T20:28:36.358Z,98834.13
2022-07-29T20:31:02.805Z,98823.63
2022-07-29T20:33:29.515Z,98824.38
2022-07-29T20:35:55.898Z,98830.91
2022-07-29T20:38:22.290Z,98829.00
2022-07-29T20:40:48.757Z,98829.28
2022-07-29T20:43:15.145Z,98827.63
2022-07-29T20:45:41.671Z,98829.81
2022-07-29T20:48:08.556Z,98825.06
2022-07-29T20:50:35.050Z,98825.41
2022-07-29T20:53:01.608Z,98825.59
2022-07-29T20:55:28.274Z,98820.06
2022-07-29T20:57:54.663Z,98820.06
2022-07-29T21:00:21.048Z,98818.72
2022-07-29T21:02:48.210Z,98819.03
2022-07-29T21:05:14.790Z,98813.16
2022-07-29T21:07:41.208Z,98806.91
2022-07-29T21:10:07.692Z,98802.38
2022-07-29T21:12:34.230Z,98800.88
2022-07-29T21:15:00.661Z,98800.22
2022-07-29T21:17:27.618Z,98794.16
2022-07-29T21:19:54.050Z,98793.19
2022-07-29T21:22:20.604Z,98783.25
2022-07-29T21:24:47.151Z,98787.53
2022-07-29T21:27:20.663Z,98781.41
2022-07-29T21:29:48.362Z,98784.34
2022-07-29T21:32:14.776Z,98784.66
2022-07-29T21:34:56.203Z,98787.56
2022-07-29T21:37:22.648Z,98778.28
2022-07-29T21:39:49.070Z,98776.47
2022-07-29T21:42:15.531Z,98779.13
2022-07-29T21:44:42.111Z,98778.78
2022-07-29T21:47:08.532Z,98768.72
2022-07-29T21:49:35.072Z,98768.38
2022-07-29T21:52:01.646Z,98769.75
2022-07-29T21:54:28.330Z,98773.06
2022-07-29T21:56:55.087Z,98772.41
2022-07-29T21:59:23.684Z,98773.41
2022-07-29T22:01:50.143Z,98772.06
2022-07-29T22:04:16.795Z,98772.09
2022-07-29T22:06:43.320Z,98768.72
2022-07-29T22:09:09.707Z,98763.19
2022-07-29T22:11:36.321Z,98757.38
2022-07-29T22:14:02.759Z,98759.78
2022-07-29T22:16:29.193Z,98755.19
2022-07-29T22:18:56.026Z,98753.75
2022-07-29T22:21:22.460Z,98761.88
2022-07-29T22:23:48.838Z,98764.66
2022-07-29T22:26:15.311Z,98769.72
2022-07-29T22:28:41.725Z,98770.41
2022-07-29T22:31:08.213Z,98768.03
2022-07-29T22:33:34.879Z,98767.25
2022-07-29T22:36:01.480Z,98773.72
2022-07-29T22:38:27.902Z,98776.06
2022-07-29T22:40:54.461Z,98767.03
2022-07-29T22:43:27.063Z,98775.78
2022-07-29T22:45:53.516Z,98772.44
2022-07-29T22:48:20.325Z,98775.78
2022-07-29T22:50:46.708Z,98770.56
2022-07-29T22:53:13.099Z,98759.16
2022-07-29T22:55:39.903Z,98767.03
2022-07-29T22:58:06.295Z,98758.97
2022-07-29T23:00:32.696Z,98759.81
2022-07-29T23:02:59.278Z,98764.00
2022-07-29T23:05:25.714Z,98764.34
2022-07-29T23:07:52.153Z,98754.63
2022-07-29T23:10:18.551Z,98757.81
2022-07-29T23:12:44.915Z,98756.31
2022-07-29T23:15:11.295Z,98762.16
2022-07-29T23:17:37.756Z,98762.56
2022-07-29T23:20:04.145Z,98767.19
2022-07-29T23:22:30.572Z,98774.72
2022-07-29T23:24:57.087Z,98791.47
2022-07-29T23:27:23.499Z,98795.31
2022-07-29T23:29:50.056Z,98809.84
2022-07-29T23:32:16.631Z,98818.31
2022-07-29T23:34:43.028Z,98815.69
2022-07-29T23:37:09.513Z,98821.19
2022-07-29T23:39:36.077Z,98826.34
2022-07-29T23:42:02.452Z,98826.59
2022-07-29T23:44:28.862Z,98824.91
2022-07-29T23:46:55.848Z,98827.63
2022-07-29T23:49:22.517Z,98827.16
2022-07-29T23:51:49.030Z,98836.59
2022-07-29T23:54:15.658Z,98819.50
2022-07-29T23:56:42.080Z,98824.97
2022-07-29T23:59:08.516Z,98827.28
